sensor_id;sensor_type;location;lat;lon;timestamp;temperature;humidity
68139;DHT22;54940;50.842;4.410;2023-08-12T00:01:50;22.20;99.90
68139;DHT22;54940;50.842;4.410;2023-08-12T00:04:15;22.10;99.90
68139;DHT22;54940;50.842;4.410;2023-08-12T00:06:42;22.00;99.90
68139;DHT22;54940;50.842;4.410;2023-08-12T00:09:08;21.90;99.90
68139;DHT22;54940;50.842;4.410;2023-08-12T00:11:35;21.90;99.90
68139;DHT22;54940;50.842;4.410;2023-08-12T00:14:01;22.00;99.90
68139;DHT22;54940;50.842;4.410;2023-08-12T00:16:26;22.00;99.90
68139;DHT22;54940;50.842;4.410;2023-08-12T00:18:52;22.10;99.90
68139;DHT22;54940;50.842;4.410;2023-08-12T00:21:18;22.10;99.90
68139;DHT22;54940;50.842;4.410;2023-08-12T00:23:43;22.10;99.90
68139;DHT22;54940;50.842;4.410;2023-08-12T00:26:10;22.10;99.90
68139;DHT22;54940;50.842;4.410;2023-08-12T00:28:36;22.10;99.90
68139;DHT22;54940;50.842;4.410;2023-08-12T00:31:02;22.10;99.90
68139;DHT22;54940;50.842;4.410;2023-08-12T00:33:27;22.10;99.90
68139;DHT22;54940;50.842;4.410;2023-08-12T00:35:53;22.00;99.90
68139;DHT22;54940;50.842;4.410;2023-08-12T00:38:21;22.00;99.90
68139;DHT22;54940;50.842;4.410;2023-08-12T00:40:47;22.00;99.90
68139;DHT22;54940;50.842;4.410;2023-08-12T00:43:13;22.00;99.90
68139;DHT22;54940;50.842;4.410;2023-08-12T00:45:41;22.00;99.90
68139;DHT22;54940;50.842;4.410;2023-08-12T00:48:08;22.00;99.90
68139;DHT22;54940;50.842;4.410;2023-08-12T00:50:36;22.00;99.90
68139;DHT22;54940;50.842;4.410;2023-08-12T00:53:02;22.00;99.90
68139;DHT22;54940;50.842;4.410;2023-08-12T00:55:27;22.00;99.90
68139;DHT22;54940;50.842;4.410;2023-08-12T00:57:53;22.00;99.90
68139;DHT22;54940;50.842;4.410;2023-08-12T01:00:19;22.10;99.90
68139;DHT22;54940;50.842;4.410;2023-08-12T01:02:48;22.10;99.90
68139;DHT22;54940;50.842;4.410;2023-08-12T01:05:17;22.10;99.90
68139;DHT22;54940;50.842;4.410;2023-08-12T01:07:43;22.10;99.90
68139;DHT22;54940;50.842;4.410;2023-08-12T01:10:10;22.10;99.90
68139;DHT22;54940;50.842;4.410;2023-08-12T01:12:55;22.10;99.90
68139;DHT22;54940;50.842;4.410;2023-08-12T01:15:25;22.10;99.90
68139;DHT22;54940;50.842;4.410;2023-08-12T01:17:53;22.20;99.90
68139;DHT22;54940;50.842;4.410;2023-08-12T01:20:23;22.20;99.90
68139;DHT22;54940;50.842;4.410;2023-08-12T01:22:56;22.10;99.90
68139;DHT22;54940;50.842;4.410;2023-08-12T01:25:26;22.20;99.90
68139;DHT22;54940;50.842;4.410;2023-08-12T01:27:52;22.30;99.90
68139;DHT22;54940;50.842;4.410;2023-08-12T01:30:19;22.40;99.90
68139;DHT22;54940;50.842;4.410;2023-08-12T01:32:58;22.40;99.90
68139;DHT22;54940;50.842;4.410;2023-08-12T01:35:35;22.40;99.90
68139;DHT22;54940;50.842;4.410;2023-08-12T01:38:04;22.40;99.90
68139;DHT22;54940;50.842;4.410;2023-08-12T01:40:31;22.40;99.90
68139;DHT22;54940;50.842;4.410;2023-08-12T01:42:58;22.30;99.90
68139;DHT22;54940;50.842;4.410;2023-08-12T01:45:27;22.30;99.90
68139;DHT22;54940;50.842;4.410;2023-08-12T01:47:53;22.20;99.90
68139;DHT22;54940;50.842;4.410;2023-08-12T01:50:18;22.10;99.90
68139;DHT22;54940;50.842;4.410;2023-08-12T01:52:44;22.00;99.90
68139;DHT22;54940;50.842;4.410;2023-08-12T01:55:10;22.00;99.90
68139;DHT22;54940;50.842;4.410;2023-08-12T01:57:36;21.90;99.90
68139;DHT22;54940;50.842;4.410;2023-08-12T02:00:02;22.00;99.90
68139;DHT22;54940;50.842;4.410;2023-08-12T02:02:27;21.90;99.90
68139;DHT22;54940;50.842;4.410;2023-08-12T02:04:53;22.00;99.90
68139;DHT22;54940;50.842;4.410;2023-08-12T02:07:21;22.00;99.90
68139;DHT22;54940;50.842;4.410;2023-08-12T02:09:49;22.00;99.90
68139;DHT22;54940;50.842;4.410;2023-08-12T02:12:14;22.10;99.90
68139;DHT22;54940;50.842;4.410;2023-08-12T02:14:40;21.90;99.90
68139;DHT22;54940;50.842;4.410;2023-08-12T02:17:06;21.90;99.90
68139;DHT22;54940;50.842;4.410;2023-08-12T02:19:32;21.80;99.90
68139;DHT22;54940;50.842;4.410;2023-08-12T02:21:59;21.80;99.90
68139;DHT22;54940;50.842;4.410;2023-08-12T02:24:25;21.90;99.90
68139;DHT22;54940;50.842;4.410;2023-08-12T02:26:51;22.00;99.90
68139;DHT22;54940;50.842;4.410;2023-08-12T02:29:16;22.10;99.90
68139;DHT22;54940;50.842;4.410;2023-08-12T02:31:42;22.00;99.90
68139;DHT22;54940;50.842;4.410;2023-08-12T02:34:08;22.10;99.90
68139;DHT22;54940;50.842;4.410;2023-08-12T02:36:33;22.00;99.90
68139;DHT22;54940;50.842;4.410;2023-08-12T02:39:01;22.00;99.90
68139;DHT22;54940;50.842;4.410;2023-08-12T02:41:27;22.00;99.90
68139;DHT22;54940;50.842;4.410;2023-08-12T02:43:55;22.00;99.90
68139;DHT22;54940;50.842;4.410;2023-08-12T02:46:20;21.90;99.90
68139;DHT22;54940;50.842;4.410;2023-08-12T02:48:46;21.80;99.90
68139;DHT22;54940;50.842;4.410;2023-08-12T02:51:17;21.80;99.90
68139;DHT22;54940;50.842;4.410;2023-08-12T02:53:47;21.80;99.90
68139;DHT22;54940;50.842;4.410;2023-08-12T02:56:13;21.80;99.90
68139;DHT22;54940;50.842;4.410;2023-08-12T02:58:39;21.80;99.90
68139;DHT22;54940;50.842;4.410;2023-08-12T03:01:04;21.80;99.90
68139;DHT22;54940;50.842;4.410;2023-08-12T03:03:30;21.80;99.90
68139;DHT22;54940;50.842;4.410;2023-08-12T03:05:58;21.90;99.90
68139;DHT22;54940;50.842;4.410;2023-08-12T03:08:24;21.80;99.90
68139;DHT22;54940;50.842;4.410;2023-08-12T03:10:50;21.80;99.90
68139;DHT22;54940;50.842;4.410;2023-08-12T03:13:15;21.80;99.90
68139;DHT22;54940;50.842;4.410;2023-08-12T03:15:41;21.90;99.90
68139;DHT22;54940;50.842;4.410;2023-08-12T03:18:08;21.90;99.90
68139;DHT22;54940;50.842;4.410;2023-08-12T03:20:39;21.90;99.90
68139;DHT22;54940;50.842;4.410;2023-08-12T03:23:04;21.90;99.90
68139;DHT22;54940;50.842;4.410;2023-08-12T03:25:30;22.00;99.90
68139;DHT22;54940;50.842;4.410;2023-08-12T03:27:55;22.00;99.90
68139;DHT22;54940;50.842;4.410;2023-08-12T03:30:21;21.90;99.90
68139;DHT22;54940;50.842;4.410;2023-08-12T03:32:47;22.00;99.90
68139;DHT22;54940;50.842;4.410;2023-08-12T03:35:14;22.00;99.90
68139;DHT22;54940;50.842;4.410;2023-08-12T03:37:40;21.90;99.90
68139;DHT22;54940;50.842;4.410;2023-08-12T03:40:06;22.00;99.90
68139;DHT22;54940;50.842;4.410;2023-08-12T03:42:32;21.90;99.90
68139;DHT22;54940;50.842;4.410;2023-08-12T03:44:58;21.70;99.90
68139;DHT22;54940;50.842;4.410;2023-08-12T03:47:23;21.70;99.90
68139;DHT22;54940;50.842;4.410;2023-08-12T03:49:52;21.40;99.90
68139;DHT22;54940;50.842;4.410;2023-08-12T03:52:17;21.30;99.90
68139;DHT22;54940;50.842;4.410;2023-08-12T03:54:43;21.10;99.90
68139;DHT22;54940;50.842;4.410;2023-08-12T03:57:11;21.10;99.90
68139;DHT22;54940;50.842;4.410;2023-08-12T03:59:37;21.00;99.90
68139;DHT22;54940;50.842;4.410;2023-08-12T04:02:03;21.00;99.90
68139;DHT22;54940;50.842;4.410;2023-08-12T04:04:31;20.90;99.90
68139;DHT22;54940;50.842;4.410;2023-08-12T04:06:59;21.00;99.90
68139;DHT22;54940;50.842;4.410;2023-08-12T04:09:25;21.00;99.90
68139;DHT22;54940;50.842;4.410;2023-08-12T04:11:51;21.00;99.90
68139;DHT22;54940;50.842;4.410;2023-08-12T04:14:19;21.00;99.90
68139;DHT22;54940;50.842;4.410;2023-08-12T04:16:44;21.10;99.90
68139;DHT22;54940;50.842;4.410;2023-08-12T04:19:10;21.10;99.90
68139;DHT22;54940;50.842;4.410;2023-08-12T04:21:36;21.10;99.90
68139;DHT22;54940;50.842;4.410;2023-08-12T04:24:01;21.10;99.90
68139;DHT22;54940;50.842;4.410;2023-08-12T04:26:27;21.10;99.90
68139;DHT22;54940;50.842;4.410;2023-08-12T04:28:53;21.10;99.90
68139;DHT22;54940;50.842;4.410;2023-08-12T04:31:19;21.10;99.90
68139;DHT22;54940;50.842;4.410;2023-08-12T04:33:44;21.20;99.90
68139;DHT22;54940;50.842;4.410;2023-08-12T04:36:17;21.20;99.90
68139;DHT22;54940;50.842;4.410;2023-08-12T04:38:42;21.10;99.90
68139;DHT22;54940;50.842;4.410;2023-08-12T04:41:08;21.00;99.90
68139;DHT22;54940;50.842;4.410;2023-08-12T04:43:33;20.90;99.90
68139;DHT22;54940;50.842;4.410;2023-08-12T04:45:59;20.90;99.90
68139;DHT22;54940;50.842;4.410;2023-08-12T04:48:25;20.80;99.90
68139;DHT22;54940;50.842;4.410;2023-08-12T04:50:50;20.90;99.90
68139;DHT22;54940;50.842;4.410;2023-08-12T04:53:16;20.80;99.90
68139;DHT22;54940;50.842;4.410;2023-08-12T04:55:41;20.80;99.90
68139;DHT22;54940;50.842;4.410;2023-08-12T04:58:10;20.70;99.90
68139;DHT22;54940;50.842;4.410;2023-08-12T05:00:35;20.70;99.90
68139;DHT22;54940;50.842;4.410;2023-08-12T05:03:01;20.70;99.90
68139;DHT22;54940;50.842;4.410;2023-08-12T05:05:30;20.60;99.90
68139;DHT22;54940;50.842;4.410;2023-08-12T05:07:56;20.70;99.90
68139;DHT22;54940;50.842;4.410;2023-08-12T05:10:21;20.70;99.90
68139;DHT22;54940;50.842;4.410;2023-08-12T05:12:47;20.60;99.90
68139;DHT22;54940;50.842;4.410;2023-08-12T05:15:14;20.60;99.90
68139;DHT22;54940;50.842;4.410;2023-08-12T05:17:42;20.60;99.90
68139;DHT22;54940;50.842;4.410;2023-08-12T05:20:10;20.70;99.90
68139;DHT22;54940;50.842;4.410;2023-08-12T05:22:36;20.70;99.90
68139;DHT22;54940;50.842;4.410;2023-08-12T05:25:02;20.60;99.90
68139;DHT22;54940;50.842;4.410;2023-08-12T05:27:27;20.60;99.90
68139;DHT22;54940;50.842;4.410;2023-08-12T05:29:53;20.70;99.90
68139;DHT22;54940;50.842;4.410;2023-08-12T05:32:19;20.70;99.90
68139;DHT22;54940;50.842;4.410;2023-08-12T05:34:51;20.60;99.90
68139;DHT22;54940;50.842;4.410;2023-08-12T05:37:17;20.60;99.90
68139;DHT22;54940;50.842;4.410;2023-08-12T05:39:43;20.60;99.90
68139;DHT22;54940;50.842;4.410;2023-08-12T05:42:09;20.60;99.90
68139;DHT22;54940;50.842;4.410;2023-08-12T05:44:36;20.60;99.90
68139;DHT22;54940;50.842;4.410;2023-08-12T05:47:04;20.70;99.90
68139;DHT22;54940;50.842;4.410;2023-08-12T05:49:30;20.70;99.90
68139;DHT22;54940;50.842;4.410;2023-08-12T05:51:55;20.60;99.90
68139;DHT22;54940;50.842;4.410;2023-08-12T05:54:21;20.60;99.90
68139;DHT22;54940;50.842;4.410;2023-08-12T05:56:47;20.70;99.90
68139;DHT22;54940;50.842;4.410;2023-08-12T05:59:12;20.60;99.90
68139;DHT22;54940;50.842;4.410;2023-08-12T06:01:38;20.50;99.90
68139;DHT22;54940;50.842;4.410;2023-08-12T06:04:04;20.50;99.90
68139;DHT22;54940;50.842;4.410;2023-08-12T06:06:29;20.50;99.90
68139;DHT22;54940;50.842;4.410;2023-08-12T06:08:55;20.50;99.90
68139;DHT22;54940;50.842;4.410;2023-08-12T06:11:20;20.40;99.90
68139;DHT22;54940;50.842;4.410;2023-08-12T06:13:46;20.50;99.90
68139;DHT22;54940;50.842;4.410;2023-08-12T06:16:12;20.40;99.90
68139;DHT22;54940;50.842;4.410;2023-08-12T06:18:37;20.40;99.90
68139;DHT22;54940;50.842;4.410;2023-08-12T06:21:03;20.40;99.90
68139;DHT22;54940;50.842;4.410;2023-08-12T06:23:29;20.40;99.90
68139;DHT22;54940;50.842;4.410;2023-08-12T06:25:55;20.40;99.90
68139;DHT22;54940;50.842;4.410;2023-08-12T06:28:21;20.40;99.90
68139;DHT22;54940;50.842;4.410;2023-08-12T06:30:47;20.40;99.90
68139;DHT22;54940;50.842;4.410;2023-08-12T06:33:14;20.40;99.90
68139;DHT22;54940;50.842;4.410;2023-08-12T06:35:40;20.50;99.90
68139;DHT22;54940;50.842;4.410;2023-08-12T06:38:05;20.50;99.90
68139;DHT22;54940;50.842;4.410;2023-08-12T06:40:31;20.50;99.90
68139;DHT22;54940;50.842;4.410;2023-08-12T06:42:57;20.60;99.90
68139;DHT22;54940;50.842;4.410;2023-08-12T06:45:25;20.60;99.90
68139;DHT22;54940;50.842;4.410;2023-08-12T06:47:50;20.60;99.90
68139;DHT22;54940;50.842;4.410;2023-08-12T06:50:16;20.60;99.90
68139;DHT22;54940;50.842;4.410;2023-08-12T06:52:42;20.70;99.90
68139;DHT22;54940;50.842;4.410;2023-08-12T06:55:08;20.70;99.90
68139;DHT22;54940;50.842;4.410;2023-08-12T06:57:34;20.80;99.90
68139;DHT22;54940;50.842;4.410;2023-08-12T06:59:59;20.80;99.90
68139;DHT22;54940;50.842;4.410;2023-08-12T07:02:25;20.80;99.90
68139;DHT22;54940;50.842;4.410;2023-08-12T07:04:53;20.70;99.90
68139;DHT22;54940;50.842;4.410;2023-08-12T07:07:19;20.70;99.90
68139;DHT22;54940;50.842;4.410;2023-08-12T07:09:44;20.70;99.90
68139;DHT22;54940;50.842;4.410;2023-08-12T07:12:10;20.90;99.90
68139;DHT22;54940;50.842;4.410;2023-08-12T07:14:35;21.00;99.90
68139;DHT22;54940;50.842;4.410;2023-08-12T07:17:01;20.80;99.90
68139;DHT22;54940;50.842;4.410;2023-08-12T07:19:27;20.60;99.90
68139;DHT22;54940;50.842;4.410;2023-08-12T07:21:52;20.50;99.90
68139;DHT22;54940;50.842;4.410;2023-08-12T07:24:18;20.50;99.90
68139;DHT22;54940;50.842;4.410;2023-08-12T07:26:44;20.30;99.90
68139;DHT22;54940;50.842;4.410;2023-08-12T07:29:09;20.10;99.90
68139;DHT22;54940;50.842;4.410;2023-08-12T07:31:35;20.00;99.90
68139;DHT22;54940;50.842;4.410;2023-08-12T07:34:01;20.00;99.90
68139;DHT22;54940;50.842;4.410;2023-08-12T07:36:29;20.00;99.90
68139;DHT22;54940;50.842;4.410;2023-08-12T07:38:54;20.00;99.90
68139;DHT22;54940;50.842;4.410;2023-08-12T07:41:20;20.10;99.90
68139;DHT22;54940;50.842;4.410;2023-08-12T07:43:46;20.10;99.90
68139;DHT22;54940;50.842;4.410;2023-08-12T07:46:11;20.20;99.90
68139;DHT22;54940;50.842;4.410;2023-08-12T07:48:37;20.20;99.90
68139;DHT22;54940;50.842;4.410;2023-08-12T07:51:03;20.40;99.90
68139;DHT22;54940;50.842;4.410;2023-08-12T07:53:29;20.40;99.90
68139;DHT22;54940;50.842;4.410;2023-08-12T07:55:54;20.50;99.90
68139;DHT22;54940;50.842;4.410;2023-08-12T07:58:20;20.60;99.90
68139;DHT22;54940;50.842;4.410;2023-08-12T08:00:46;20.50;99.90
68139;DHT22;54940;50.842;4.410;2023-08-12T08:03:11;20.50;99.90
68139;DHT22;54940;50.842;4.410;2023-08-12T08:05:40;20.40;99.90
68139;DHT22;54940;50.842;4.410;2023-08-12T08:08:08;20.40;99.90
68139;DHT22;54940;50.842;4.410;2023-08-12T08:10:34;20.50;99.90
68139;DHT22;54940;50.842;4.410;2023-08-12T08:13:00;20.50;99.90
68139;DHT22;54940;50.842;4.410;2023-08-12T08:15:25;20.50;99.90
68139;DHT22;54940;50.842;4.410;2023-08-12T08:17:51;20.40;99.90
68139;DHT22;54940;50.842;4.410;2023-08-12T08:20:17;20.50;99.90
68139;DHT22;54940;50.842;4.410;2023-08-12T08:22:42;20.40;99.90
68139;DHT22;54940;50.842;4.410;2023-08-12T08:25:08;20.30;99.90
68139;DHT22;54940;50.842;4.410;2023-08-12T08:27:34;20.40;99.90
68139;DHT22;54940;50.842;4.410;2023-08-12T08:29:59;20.40;99.90
68139;DHT22;54940;50.842;4.410;2023-08-12T08:32:25;20.40;99.90
68139;DHT22;54940;50.842;4.410;2023-08-12T08:34:51;20.60;99.90
68139;DHT22;54940;50.842;4.410;2023-08-12T08:37:16;20.70;99.90
68139;DHT22;54940;50.842;4.410;2023-08-12T08:39:42;20.70;99.90
68139;DHT22;54940;50.842;4.410;2023-08-12T08:42:10;20.70;99.90
68139;DHT22;54940;50.842;4.410;2023-08-12T08:44:40;20.50;99.90
68139;DHT22;54940;50.842;4.410;2023-08-12T08:47:08;20.50;99.90
68139;DHT22;54940;50.842;4.410;2023-08-12T08:49:34;20.40;99.90
68139;DHT22;54940;50.842;4.410;2023-08-12T08:52:03;20.40;99.90
68139;DHT22;54940;50.842;4.410;2023-08-12T08:54:29;20.30;99.90
68139;DHT22;54940;50.842;4.410;2023-08-12T08:56:55;20.20;99.90
68139;DHT22;54940;50.842;4.410;2023-08-12T08:59:21;20.30;99.90
68139;DHT22;54940;50.842;4.410;2023-08-12T09:01:48;20.30;99.90
68139;DHT22;54940;50.842;4.410;2023-08-12T09:04:15;20.40;99.90
68139;DHT22;54940;50.842;4.410;2023-08-12T09:06:42;20.60;99.90
68139;DHT22;54940;50.842;4.410;2023-08-12T09:09:13;20.60;99.90
68139;DHT22;54940;50.842;4.410;2023-08-12T09:11:41;20.80;99.90
68139;DHT22;54940;50.842;4.410;2023-08-12T09:14:07;20.90;99.90
68139;DHT22;54940;50.842;4.410;2023-08-12T09:16:34;20.90;99.90
68139;DHT22;54940;50.842;4.410;2023-08-12T09:18:59;20.90;99.90
68139;DHT22;54940;50.842;4.410;2023-08-12T09:21:25;20.90;99.90
68139;DHT22;54940;50.842;4.410;2023-08-12T09:23:51;20.80;99.90
68139;DHT22;54940;50.842;4.410;2023-08-12T09:26:19;20.70;99.90
68139;DHT22;54940;50.842;4.410;2023-08-12T09:28:46;20.60;99.90
68139;DHT22;54940;50.842;4.410;2023-08-12T09:31:25;20.60;99.90
68139;DHT22;54940;50.842;4.410;2023-08-12T09:33:52;20.60;99.90
68139;DHT22;54940;50.842;4.410;2023-08-12T09:36:18;20.80;99.90
68139;DHT22;54940;50.842;4.410;2023-08-12T09:38:47;20.80;99.90
68139;DHT22;54940;50.842;4.410;2023-08-12T09:41:13;20.90;99.90
68139;DHT22;54940;50.842;4.410;2023-08-12T09:43:42;20.70;99.90
68139;DHT22;54940;50.842;4.410;2023-08-12T09:46:17;20.80;99.90
68139;DHT22;54940;50.842;4.410;2023-08-12T09:48:43;20.70;99.90
68139;DHT22;54940;50.842;4.410;2023-08-12T09:51:11;20.70;99.90
68139;DHT22;54940;50.842;4.410;2023-08-12T09:53:40;20.80;99.90
68139;DHT22;54940;50.842;4.410;2023-08-12T09:56:08;20.80;99.90
68139;DHT22;54940;50.842;4.410;2023-08-12T09:58:37;20.80;99.90
68139;DHT22;54940;50.842;4.410;2023-08-12T10:01:12;20.80;99.90
68139;DHT22;54940;50.842;4.410;2023-08-12T10:03:39;20.70;99.90
68139;DHT22;54940;50.842;4.410;2023-08-12T10:06:06;20.60;99.90
68139;DHT22;54940;50.842;4.410;2023-08-12T10:08:32;20.70;99.90
68139;DHT22;54940;50.842;4.410;2023-08-12T10:11:03;20.60;99.90
68139;DHT22;54940;50.842;4.410;2023-08-12T10:13:29;20.70;99.90
68139;DHT22;54940;50.842;4.410;2023-08-12T10:15:55;20.70;99.90
68139;DHT22;54940;50.842;4.410;2023-08-12T10:18:22;20.90;99.90
68139;DHT22;54940;50.842;4.410;2023-08-12T10:20:49;21.00;99.90
68139;DHT22;54940;50.842;4.410;2023-08-12T10:23:16;21.00;99.90
68139;DHT22;54940;50.842;4.410;2023-08-12T10:25:44;21.10;99.90
68139;DHT22;54940;50.842;4.410;2023-08-12T10:28:11;21.10;99.90
68139;DHT22;54940;50.842;4.410;2023-08-12T10:30:37;21.30;99.90
68139;DHT22;54940;50.842;4.410;2023-08-12T10:33:07;21.40;99.90
68139;DHT22;54940;50.842;4.410;2023-08-12T10:35:59;21.60;99.90
68139;DHT22;54940;50.842;4.410;2023-08-12T10:38:25;21.90;99.90
68139;DHT22;54940;50.842;4.410;2023-08-12T10:40:52;22.10;99.90
68139;DHT22;54940;50.842;4.410;2023-08-12T10:43:20;22.30;99.90
68139;DHT22;54940;50.842;4.410;2023-08-12T10:45:52;22.50;99.90
68139;DHT22;54940;50.842;4.410;2023-08-12T10:48:21;22.60;99.90
68139;DHT22;54940;50.842;4.410;2023-08-12T10:50:53;22.60;99.90
68139;DHT22;54940;50.842;4.410;2023-08-12T10:53:27;22.50;99.90
68139;DHT22;54940;50.842;4.410;2023-08-12T10:55:58;22.60;99.90
68139;DHT22;54940;50.842;4.410;2023-08-12T11:00:59;23.10;99.90
68139;DHT22;54940;50.842;4.410;2023-08-12T11:03:25;23.00;99.90
68139;DHT22;54940;50.842;4.410;2023-08-12T11:05:53;22.90;99.90
68139;DHT22;54940;50.842;4.410;2023-08-12T11:08:26;22.90;99.90
68139;DHT22;54940;50.842;4.410;2023-08-12T11:10:55;23.30;99.90
68139;DHT22;54940;50.842;4.410;2023-08-12T11:13:21;23.50;99.90
68139;DHT22;54940;50.842;4.410;2023-08-12T11:15:47;23.50;99.90
68139;DHT22;54940;50.842;4.410;2023-08-12T11:18:17;23.70;99.90
68139;DHT22;54940;50.842;4.410;2023-08-12T11:20:43;23.60;99.90
68139;DHT22;54940;50.842;4.410;2023-08-12T11:23:10;23.70;99.90
68139;DHT22;54940;50.842;4.410;2023-08-12T11:25:37;23.80;99.90
68139;DHT22;54940;50.842;4.410;2023-08-12T11:28:04;23.80;99.90
68139;DHT22;54940;50.842;4.410;2023-08-12T11:30:30;23.70;99.90
68139;DHT22;54940;50.842;4.410;2023-08-12T11:32:56;23.70;99.90
68139;DHT22;54940;50.842;4.410;2023-08-12T11:35:23;23.80;99.90
68139;DHT22;54940;50.842;4.410;2023-08-12T11:37:51;23.80;99.90
68139;DHT22;54940;50.842;4.410;2023-08-12T11:40:19;23.70;99.90
68139;DHT22;54940;50.842;4.410;2023-08-12T11:42:47;23.80;99.90
68139;DHT22;54940;50.842;4.410;2023-08-12T11:45:15;23.70;99.90
68139;DHT22;54940;50.842;4.410;2023-08-12T11:47:44;23.60;99.90
68139;DHT22;54940;50.842;4.410;2023-08-12T11:50:12;23.30;99.90
68139;DHT22;54940;50.842;4.410;2023-08-12T11:52:38;23.30;99.90
68139;DHT22;54940;50.842;4.410;2023-08-12T11:55:07;23.10;99.90
68139;DHT22;54940;50.842;4.410;2023-08-12T11:57:34;23.20;99.90
68139;DHT22;54940;50.842;4.410;2023-08-12T12:00:01;23.30;99.90
68139;DHT22;54940;50.842;4.410;2023-08-12T12:02:28;23.20;99.90
68139;DHT22;54940;50.842;4.410;2023-08-12T12:04:54;23.20;99.90
68139;DHT22;54940;50.842;4.410;2023-08-12T12:07:22;23.20;99.90
68139;DHT22;54940;50.842;4.410;2023-08-12T12:09:54;23.30;99.90
68139;DHT22;54940;50.842;4.410;2023-08-12T12:12:24;23.70;99.90
68139;DHT22;54940;50.842;4.410;2023-08-12T12:14:53;23.80;99.90
68139;DHT22;54940;50.842;4.410;2023-08-12T12:17:21;23.80;99.90
68139;DHT22;54940;50.842;4.410;2023-08-12T12:19:51;23.90;99.90
68139;DHT22;54940;50.842;4.410;2023-08-12T12:22:17;24.10;99.90
68139;DHT22;54940;50.842;4.410;2023-08-12T12:24:46;24.40;99.90
68139;DHT22;54940;50.842;4.410;2023-08-12T12:27:13;24.70;99.90
68139;DHT22;54940;50.842;4.410;2023-08-12T12:29:40;24.90;99.90
68139;DHT22;54940;50.842;4.410;2023-08-12T12:32:06;25.00;99.90
68139;DHT22;54940;50.842;4.410;2023-08-12T12:34:31;25.00;99.90
68139;DHT22;54940;50.842;4.410;2023-08-12T12:36:59;24.80;99.90
68139;DHT22;54940;50.842;4.410;2023-08-12T12:39:27;24.60;99.90
68139;DHT22;54940;50.842;4.410;2023-08-12T12:41:53;24.60;99.90
68139;DHT22;54940;50.842;4.410;2023-08-12T12:44:18;24.80;99.90
68139;DHT22;54940;50.842;4.410;2023-08-12T12:46:44;24.90;99.90
68139;DHT22;54940;50.842;4.410;2023-08-12T12:49:09;25.00;99.90
68139;DHT22;54940;50.842;4.410;2023-08-12T12:51:35;25.00;99.90
68139;DHT22;54940;50.842;4.410;2023-08-12T12:54:01;25.00;99.90
68139;DHT22;54940;50.842;4.410;2023-08-12T12:56:26;24.90;99.90
68139;DHT22;54940;50.842;4.410;2023-08-12T12:58:52;24.70;99.90
68139;DHT22;54940;50.842;4.410;2023-08-12T13:01:17;24.50;99.90
68139;DHT22;54940;50.842;4.410;2023-08-12T13:03:43;24.60;99.90
68139;DHT22;54940;50.842;4.410;2023-08-12T13:06:09;24.70;99.90
68139;DHT22;54940;50.842;4.410;2023-08-12T13:08:34;24.60;99.90
68139;DHT22;54940;50.842;4.410;2023-08-12T13:11:02;24.70;99.90
68139;DHT22;54940;50.842;4.410;2023-08-12T13:13:28;24.80;99.90
68139;DHT22;54940;50.842;4.410;2023-08-12T13:15:56;24.80;99.90
68139;DHT22;54940;50.842;4.410;2023-08-12T13:18:23;25.00;99.90
68139;DHT22;54940;50.842;4.410;2023-08-12T13:20:48;25.50;99.90
68139;DHT22;54940;50.842;4.410;2023-08-12T13:23:14;25.40;99.90
68139;DHT22;54940;50.842;4.410;2023-08-12T13:25:40;25.40;99.90
68139;DHT22;54940;50.842;4.410;2023-08-12T13:28:06;25.20;99.90
68139;DHT22;54940;50.842;4.410;2023-08-12T13:30:31;25.30;99.90
68139;DHT22;54940;50.842;4.410;2023-08-12T13:32:57;25.20;99.90
68139;DHT22;54940;50.842;4.410;2023-08-12T13:35:23;25.10;99.90
68139;DHT22;54940;50.842;4.410;2023-08-12T13:37:49;24.90;99.90
68139;DHT22;54940;50.842;4.410;2023-08-12T13:40:16;24.70;99.90
68139;DHT22;54940;50.842;4.410;2023-08-12T13:42:44;24.90;99.90
68139;DHT22;54940;50.842;4.410;2023-08-12T13:45:12;25.10;99.90
68139;DHT22;54940;50.842;4.410;2023-08-12T13:47:38;25.10;99.90
68139;DHT22;54940;50.842;4.410;2023-08-12T13:50:09;25.30;99.90
68139;DHT22;54940;50.842;4.410;2023-08-12T13:52:35;25.50;99.90
68139;DHT22;54940;50.842;4.410;2023-08-12T13:55:03;25.40;99.90
68139;DHT22;54940;50.842;4.410;2023-08-12T13:57:29;25.40;99.90
68139;DHT22;54940;50.842;4.410;2023-08-12T13:59:55;25.10;99.90
68139;DHT22;54940;50.842;4.410;2023-08-12T14:02:20;25.20;99.90
68139;DHT22;54940;50.842;4.410;2023-08-12T14:04:46;25.20;99.90
68139;DHT22;54940;50.842;4.410;2023-08-12T14:07:14;25.40;99.90
68139;DHT22;54940;50.842;4.410;2023-08-12T14:09:39;25.40;99.90
68139;DHT22;54940;50.842;4.410;2023-08-12T14:12:05;25.60;99.90
68139;DHT22;54940;50.842;4.410;2023-08-12T14:14:31;25.70;99.90
68139;DHT22;54940;50.842;4.410;2023-08-12T14:16:59;25.60;99.90
68139;DHT22;54940;50.842;4.410;2023-08-12T14:19:24;25.50;99.90
68139;DHT22;54940;50.842;4.410;2023-08-12T14:21:50;25.70;99.90
68139;DHT22;54940;50.842;4.410;2023-08-12T14:24:16;25.70;99.90
68139;DHT22;54940;50.842;4.410;2023-08-12T14:26:41;25.50;99.90
68139;DHT22;54940;50.842;4.410;2023-08-12T14:29:07;25.50;99.90
68139;DHT22;54940;50.842;4.410;2023-08-12T14:31:33;25.50;99.90
68139;DHT22;54940;50.842;4.410;2023-08-12T14:33:59;25.70;99.90
68139;DHT22;54940;50.842;4.410;2023-08-12T14:36:26;25.60;99.90
68139;DHT22;54940;50.842;4.410;2023-08-12T14:38:52;25.30;99.90
68139;DHT22;54940;50.842;4.410;2023-08-12T14:41:20;25.00;99.90
68139;DHT22;54940;50.842;4.410;2023-08-12T14:43:45;24.90;99.90
68139;DHT22;54940;50.842;4.410;2023-08-12T14:46:11;24.80;99.90
68139;DHT22;54940;50.842;4.410;2023-08-12T14:48:37;24.60;99.90
68139;DHT22;54940;50.842;4.410;2023-08-12T14:51:02;24.40;99.90
68139;DHT22;54940;50.842;4.410;2023-08-12T14:53:30;24.40;99.90
68139;DHT22;54940;50.842;4.410;2023-08-12T14:55:55;24.40;99.90
68139;DHT22;54940;50.842;4.410;2023-08-12T14:58:21;24.70;99.90
68139;DHT22;54940;50.842;4.410;2023-08-12T15:00:47;25.00;99.90
68139;DHT22;54940;50.842;4.410;2023-08-12T15:03:15;25.10;99.90
68139;DHT22;54940;50.842;4.410;2023-08-12T15:05:41;24.80;99.90
68139;DHT22;54940;50.842;4.410;2023-08-12T15:08:07;24.60;99.90
68139;DHT22;54940;50.842;4.410;2023-08-12T15:10:33;24.30;99.90
68139;DHT22;54940;50.842;4.410;2023-08-12T15:12:59;24.20;99.90
68139;DHT22;54940;50.842;4.410;2023-08-12T15:15:27;24.30;99.90
68139;DHT22;54940;50.842;4.410;2023-08-12T15:17:55;24.50;99.90
68139;DHT22;54940;50.842;4.410;2023-08-12T15:20:21;24.80;99.90
68139;DHT22;54940;50.842;4.410;2023-08-12T15:22:46;25.00;99.90
68139;DHT22;54940;50.842;4.410;2023-08-12T15:25:12;25.00;99.90
68139;DHT22;54940;50.842;4.410;2023-08-12T15:27:38;25.00;99.90
68139;DHT22;54940;50.842;4.410;2023-08-12T15:30:06;25.10;99.90